sensor_id;sensor_type;location;lat;lon;timestamp;P1;durP1;ratioP1;P2;durP2;ratioP2
572;SDS011;271;51.114;13.780;2022-12-18T00:01:17;37.33;;;16.52;;
572;SDS011;271;51.114;13.780;2022-12-18T00:03:46;43.85;;;17.67;;
572;SDS011;271;51.114;13.780;2022-12-18T00:06:15;37.53;;;16.25;;
572;SDS011;271;51.114;13.780;2022-12-18T00:08:43;42.00;;;18.50;;
572;SDS011;271;51.114;13.780;2022-12-18T00:11:12;40.17;;;17.15;;
572;SDS011;271;51.114;13.780;2022-12-18T00:13:42;40.75;;;18.63;;
572;SDS011;271;51.114;13.780;2022-12-18T00:16:11;40.80;;;16.85;;
572;SDS011;271;51.114;13.780;2022-12-18T00:18:40;42.20;;;18.27;;
572;SDS011;271;51.114;13.780;2022-12-18T00:21:09;37.75;;;15.63;;
572;SDS011;271;51.114;13.780;2022-12-18T00:23:39;38.08;;;18.08;;
572;SDS011;271;51.114;13.780;2022-12-18T00:26:09;39.80;;;16.02;;
572;SDS011;271;51.114;13.780;2022-12-18T00:28:38;40.63;;;18.25;;
572;SDS011;271;51.114;13.780;2022-12-18T00:31:06;34.28;;;16.15;;
572;SDS011;271;51.114;13.780;2022-12-18T00:33:36;40.47;;;17.58;;
572;SDS011;271;51.114;13.780;2022-12-18T00:36:04;41.03;;;16.73;;
572;SDS011;271;51.114;13.780;2022-12-18T00:38:33;40.28;;;18.13;;
572;SDS011;271;51.114;13.780;2022-12-18T00:41:02;41.72;;;17.40;;
572;SDS011;271;51.114;13.780;2022-12-18T00:43:30;38.92;;;17.17;;
572;SDS011;271;51.114;13.780;2022-12-18T00:45:56;46.42;;;18.63;;
572;SDS011;271;51.114;13.780;2022-12-18T00:48:23;38.78;;;17.20;;
572;SDS011;271;51.114;13.780;2022-12-18T00:50:51;36.90;;;16.83;;
572;SDS011;271;51.114;13.780;2022-12-18T00:53:18;39.63;;;20.23;;
572;SDS011;271;51.114;13.780;2022-12-18T00:55:46;44.05;;;17.33;;
572;SDS011;271;51.114;13.780;2022-12-18T00:58:15;45.95;;;18.60;;
572;SDS011;271;51.114;13.780;2022-12-18T01:00:43;37.30;;;16.80;;
572;SDS011;271;51.114;13.780;2022-12-18T01:03:12;42.50;;;18.38;;
572;SDS011;271;51.114;13.780;2022-12-18T01:05:40;37.05;;;16.67;;
572;SDS011;271;51.114;13.780;2022-12-18T01:08:08;38.00;;;15.80;;
572;SDS011;271;51.114;13.780;2022-12-18T01:10:36;42.58;;;18.17;;
572;SDS011;271;51.114;13.780;2022-12-18T01:13:06;40.17;;;16.48;;
572;SDS011;271;51.114;13.780;2022-12-18T01:15:35;40.28;;;16.40;;
572;SDS011;271;51.114;13.780;2022-12-18T01:18:02;46.25;;;19.27;;
572;SDS011;271;51.114;13.780;2022-12-18T01:20:30;38.83;;;17.35;;
572;SDS011;271;51.114;13.780;2022-12-18T01:22:57;37.78;;;17.02;;
572;SDS011;271;51.114;13.780;2022-12-18T01:25:25;43.50;;;18.05;;
572;SDS011;271;51.114;13.780;2022-12-18T01:27:52;40.25;;;18.13;;
572;SDS011;271;51.114;13.780;2022-12-18T01:30:20;47.17;;;19.17;;
572;SDS011;271;51.114;13.780;2022-12-18T01:32:48;42.17;;;18.48;;
572;SDS011;271;51.114;13.780;2022-12-18T01:35:16;43.10;;;17.08;;
572;SDS011;271;51.114;13.780;2022-12-18T01:37:43;41.67;;;16.73;;
572;SDS011;271;51.114;13.780;2022-12-18T01:40:11;41.55;;;18.50;;
572;SDS011;271;51.114;13.780;2022-12-18T01:42:38;46.75;;;16.95;;
572;SDS011;271;51.114;13.780;2022-12-18T01:45:08;41.97;;;15.85;;
572;SDS011;271;51.114;13.780;2022-12-18T01:47:52;40.13;;;17.05;;
572;SDS011;271;51.114;13.780;2022-12-18T01:50:22;42.78;;;18.33;;
572;SDS011;271;51.114;13.780;2022-12-18T01:52:54;46.67;;;17.70;;
572;SDS011;271;51.114;13.780;2022-12-18T01:55:25;42.13;;;17.48;;
572;SDS011;271;51.114;13.780;2022-12-18T01:57:56;40.40;;;16.55;;
572;SDS011;271;51.114;13.780;2022-12-18T02:00:25;41.25;;;18.20;;
572;SDS011;271;51.114;13.780;2022-12-18T02:02:54;40.25;;;17.65;;
572;SDS011;271;51.114;13.780;2022-12-18T02:05:24;45.25;;;17.05;;
572;SDS011;271;51.114;13.780;2022-12-18T02:08:00;40.05;;;16.52;;
572;SDS011;271;51.114;13.780;2022-12-18T02:10:36;45.03;;;16.58;;
572;SDS011;271;51.114;13.780;2022-12-18T02:13:12;40.25;;;17.15;;
572;SDS011;271;51.114;13.780;2022-12-18T02:15:49;43.42;;;18.40;;
572;SDS011;271;51.114;13.780;2022-12-18T02:18:25;46.65;;;17.77;;
572;SDS011;271;51.114;13.780;2022-12-18T02:20:59;39.85;;;17.65;;
572;SDS011;271;51.114;13.780;2022-12-18T02:23:45;38.05;;;17.90;;
572;SDS011;271;51.114;13.780;2022-12-18T02:26:19;38.20;;;15.75;;
572;SDS011;271;51.114;13.780;2022-12-18T02:28:54;45.75;;;19.67;;
572;SDS011;271;51.114;13.780;2022-12-18T02:31:26;43.75;;;18.48;;
572;SDS011;271;51.114;13.780;2022-12-18T02:33:56;41.83;;;16.92;;
572;SDS011;271;51.114;13.780;2022-12-18T02:36:27;40.70;;;16.88;;
572;SDS011;271;51.114;13.780;2022-12-18T02:38:56;38.25;;;18.23;;
572;SDS011;271;51.114;13.780;2022-12-18T02:41:26;39.20;;;16.80;;
572;SDS011;271;51.114;13.780;2022-12-18T02:43:55;44.28;;;18.92;;
572;SDS011;271;51.114;13.780;2022-12-18T02:46:29;43.67;;;16.15;;
572;SDS011;271;51.114;13.780;2022-12-18T02:49:01;43.72;;;15.75;;
572;SDS011;271;51.114;13.780;2022-12-18T02:51:37;36.50;;;15.48;;
572;SDS011;271;51.114;13.780;2022-12-18T02:54:15;36.35;;;16.30;;
572;SDS011;271;51.114;13.780;2022-12-18T02:57:00;39.10;;;17.40;;
572;SDS011;271;51.114;13.780;2022-12-18T02:59:33;41.47;;;17.40;;
572;SDS011;271;51.114;13.780;2022-12-18T03:02:09;42.47;;;17.83;;
572;SDS011;271;51.114;13.780;2022-12-18T03:04:47;41.05;;;15.75;;
572;SDS011;271;51.114;13.780;2022-12-18T03:07:22;39.40;;;15.95;;
572;SDS011;271;51.114;13.780;2022-12-18T03:09:54;41.35;;;17.90;;
572;SDS011;271;51.114;13.780;2022-12-18T03:12:24;38.17;;;16.20;;
572;SDS011;271;51.114;13.780;2022-12-18T03:14:58;38.88;;;16.20;;
572;SDS011;271;51.114;13.780;2022-12-18T03:17:30;40.45;;;18.33;;
572;SDS011;271;51.114;13.780;2022-12-18T03:20:00;40.17;;;16.60;;
572;SDS011;271;51.114;13.780;2022-12-18T03:22:31;42.00;;;18.10;;
572;SDS011;271;51.114;13.780;2022-12-18T03:25:00;42.10;;;17.65;;
572;SDS011;271;51.114;13.780;2022-12-18T03:27:33;37.38;;;16.35;;
572;SDS011;271;51.114;13.780;2022-12-18T03:30:06;44.83;;;16.70;;
572;SDS011;271;51.114;13.780;2022-12-18T03:32:38;40.65;;;17.20;;
572;SDS011;271;51.114;13.780;2022-12-18T03:35:09;42.15;;;18.10;;
572;SDS011;271;51.114;13.780;2022-12-18T03:37:47;37.92;;;17.98;;
572;SDS011;271;51.114;13.780;2022-12-18T03:40:14;39.15;;;16.48;;
572;SDS011;271;51.114;13.780;2022-12-18T03:42:45;41.47;;;16.50;;
572;SDS011;271;51.114;13.780;2022-12-18T03:45:18;40.45;;;17.90;;
572;SDS011;271;51.114;13.780;2022-12-18T03:47:53;36.95;;;17.08;;
572;SDS011;271;51.114;13.780;2022-12-18T03:50:27;36.35;;;16.77;;
572;SDS011;271;51.114;13.780;2022-12-18T03:53:04;39.35;;;16.55;;
572;SDS011;271;51.114;13.780;2022-12-18T03:55:38;39.40;;;17.10;;
572;SDS011;271;51.114;13.780;2022-12-18T03:58:08;45.05;;;18.20;;
572;SDS011;271;51.114;13.780;2022-12-18T04:00:37;39.33;;;18.10;;
572;SDS011;271;51.114;13.780;2022-12-18T04:03:06;40.05;;;17.05;;
572;SDS011;271;51.114;13.780;2022-12-18T04:05:35;39.92;;;16.67;;
572;SDS011;271;51.114;13.780;2022-12-18T04:08:04;41.30;;;17.30;;
572;SDS011;271;51.114;13.780;2022-12-18T04:10:31;39.42;;;17.20;;
572;SDS011;271;51.114;13.780;2022-12-18T04:13:06;40.67;;;17.50;;
572;SDS011;271;51.114;13.780;2022-12-18T04:15:35;44.42;;;19.42;;
572;SDS011;271;51.114;13.780;2022-12-18T04:18:04;44.90;;;19.58;;
572;SDS011;271;51.114;13.780;2022-12-18T04:20:31;39.85;;;17.52;;
572;SDS011;271;51.114;13.780;2022-12-18T04:22:58;43.30;;;18.67;;
572;SDS011;271;51.114;13.780;2022-12-18T04:25:26;42.33;;;17.50;;
572;SDS011;271;51.114;13.780;2022-12-18T04:27:53;38.30;;;16.13;;
572;SDS011;271;51.114;13.780;2022-12-18T04:30:22;39.13;;;17.38;;
572;SDS011;271;51.114;13.780;2022-12-18T04:32:49;38.10;;;16.70;;
572;SDS011;271;51.114;13.780;2022-12-18T04:35:17;42.85;;;17.08;;
572;SDS011;271;51.114;13.780;2022-12-18T04:37:44;38.80;;;16.88;;
572;SDS011;271;51.114;13.780;2022-12-18T04:40:12;43.83;;;17.50;;
572;SDS011;271;51.114;13.780;2022-12-18T04:42:39;44.08;;;19.50;;
572;SDS011;271;51.114;13.780;2022-12-18T04:45:07;40.20;;;15.98;;
572;SDS011;271;51.114;13.780;2022-12-18T04:47:37;40.45;;;18.15;;
572;SDS011;271;51.114;13.780;2022-12-18T04:50:04;43.10;;;18.58;;
572;SDS011;271;51.114;13.780;2022-12-18T04:52:32;41.70;;;17.65;;
572;SDS011;271;51.114;13.780;2022-12-18T04:55:00;42.65;;;17.73;;
572;SDS011;271;51.114;13.780;2022-12-18T04:57:28;39.40;;;18.25;;
572;SDS011;271;51.114;13.780;2022-12-18T04:59:56;42.15;;;18.92;;
572;SDS011;271;51.114;13.780;2022-12-18T05:02:23;43.25;;;19.23;;
572;SDS011;271;51.114;13.780;2022-12-18T05:04:52;37.90;;;16.80;;
572;SDS011;271;51.114;13.780;2022-12-18T05:07:19;39.55;;;18.05;;
572;SDS011;271;51.114;13.780;2022-12-18T05:09:47;44.78;;;18.77;;
572;SDS011;271;51.114;13.780;2022-12-18T05:12:14;41.05;;;18.70;;
572;SDS011;271;51.114;13.780;2022-12-18T05:14:41;36.53;;;16.75;;
572;SDS011;271;51.114;13.780;2022-12-18T05:17:09;41.65;;;16.00;;
572;SDS011;271;51.114;13.780;2022-12-18T05:19:39;40.53;;;18.63;;
572;SDS011;271;51.114;13.780;2022-12-18T05:22:08;38.22;;;18.15;;
572;SDS011;271;51.114;13.780;2022-12-18T05:24:36;37.60;;;15.27;;
572;SDS011;271;51.114;13.780;2022-12-18T05:27:03;38.10;;;15.55;;
572;SDS011;271;51.114;13.780;2022-12-18T05:29:31;41.35;;;17.05;;
572;SDS011;271;51.114;13.780;2022-12-18T05:31:58;37.92;;;15.50;;
572;SDS011;271;51.114;13.780;2022-12-18T05:34:26;35.63;;;14.95;;
572;SDS011;271;51.114;13.780;2022-12-18T05:36:53;38.45;;;15.68;;
572;SDS011;271;51.114;13.780;2022-12-18T05:39:22;38.45;;;17.45;;
572;SDS011;271;51.114;13.780;2022-12-18T05:41:49;36.45;;;16.05;;
572;SDS011;271;51.114;13.780;2022-12-18T05:44:17;36.85;;;15.20;;
572;SDS011;271;51.114;13.780;2022-12-18T05:46:44;40.65;;;16.00;;
572;SDS011;271;51.114;13.780;2022-12-18T05:49:12;38.50;;;15.07;;
572;SDS011;271;51.114;13.780;2022-12-18T05:51:39;40.08;;;16.00;;
572;SDS011;271;51.114;13.780;2022-12-18T05:54:07;38.88;;;16.42;;
572;SDS011;271;51.114;13.780;2022-12-18T05:56:36;38.55;;;16.25;;
572;SDS011;271;51.114;13.780;2022-12-18T05:59:04;38.45;;;17.10;;
572;SDS011;271;51.114;13.780;2022-12-18T06:01:31;35.50;;;15.50;;
572;SDS011;271;51.114;13.780;2022-12-18T06:03:59;41.60;;;18.23;;
572;SDS011;271;51.114;13.780;2022-12-18T06:06:27;38.00;;;16.77;;
572;SDS011;271;51.114;13.780;2022-12-18T06:08:55;34.78;;;16.10;;
572;SDS011;271;51.114;13.780;2022-12-18T06:11:23;40.10;;;15.45;;
572;SDS011;271;51.114;13.780;2022-12-18T06:13:54;36.55;;;15.40;;
572;SDS011;271;51.114;13.780;2022-12-18T06:16:23;38.20;;;16.20;;
572;SDS011;271;51.114;13.780;2022-12-18T06:18:51;34.83;;;15.45;;
572;SDS011;271;51.114;13.780;2022-12-18T06:21:19;35.35;;;15.60;;
572;SDS011;271;51.114;13.780;2022-12-18T06:23:46;37.33;;;15.55;;
572;SDS011;271;51.114;13.780;2022-12-18T06:26:14;35.53;;;14.95;;
572;SDS011;271;51.114;13.780;2022-12-18T06:28:43;37.30;;;14.68;;
572;SDS011;271;51.114;13.780;2022-12-18T06:31:12;34.75;;;15.30;;
572;SDS011;271;51.114;13.780;2022-12-18T06:33:40;36.97;;;14.90;;
572;SDS011;271;51.114;13.780;2022-12-18T06:36:09;36.92;;;16.30;;
572;SDS011;271;51.114;13.780;2022-12-18T06:38:40;38.58;;;15.20;;
572;SDS011;271;51.114;13.780;2022-12-18T06:41:09;34.88;;;13.77;;
572;SDS011;271;51.114;13.780;2022-12-18T06:43:39;37.13;;;14.82;;
572;SDS011;271;51.114;13.780;2022-12-18T06:46:07;36.20;;;14.10;;
572;SDS011;271;51.114;13.780;2022-12-18T06:48:37;38.08;;;16.35;;
572;SDS011;271;51.114;13.780;2022-12-18T06:51:05;40.40;;;16.02;;
572;SDS011;271;51.114;13.780;2022-12-18T06:53:32;37.58;;;16.40;;
572;SDS011;271;51.114;13.780;2022-12-18T06:56:00;34.88;;;16.35;;
572;SDS011;271;51.114;13.780;2022-12-18T06:58:28;36.53;;;14.95;;
572;SDS011;271;51.114;13.780;2022-12-18T07:00:59;38.97;;;16.55;;
572;SDS011;271;51.114;13.780;2022-12-18T07:03:27;35.55;;;15.43;;
572;SDS011;271;51.114;13.780;2022-12-18T07:05:56;33.78;;;14.90;;
572;SDS011;271;51.114;13.780;2022-12-18T07:08:24;37.03;;;15.57;;
572;SDS011;271;51.114;13.780;2022-12-18T07:10:51;36.22;;;15.65;;
572;SDS011;271;51.114;13.780;2022-12-18T07:13:19;37.78;;;15.32;;
572;SDS011;271;51.114;13.780;2022-12-18T07:15:47;38.60;;;16.45;;
572;SDS011;271;51.114;13.780;2022-12-18T07:18:14;38.05;;;16.13;;
572;SDS011;271;51.114;13.780;2022-12-18T07:20:41;35.88;;;14.50;;
572;SDS011;271;51.114;13.780;2022-12-18T07:23:11;45.05;;;17.73;;
572;SDS011;271;51.114;13.780;2022-12-18T07:25:38;40.75;;;15.90;;
572;SDS011;271;51.114;13.780;2022-12-18T07:28:09;33.88;;;15.02;;
572;SDS011;271;51.114;13.780;2022-12-18T07:30:38;37.42;;;16.63;;
572;SDS011;271;51.114;13.780;2022-12-18T07:33:05;40.95;;;15.43;;
572;SDS011;271;51.114;13.780;2022-12-18T07:35:33;35.72;;;14.27;;
572;SDS011;271;51.114;13.780;2022-12-18T07:38:03;37.95;;;15.52;;
572;SDS011;271;51.114;13.780;2022-12-18T07:40:32;38.60;;;15.57;;
572;SDS011;271;51.114;13.780;2022-12-18T07:43:00;34.33;;;14.63;;
572;SDS011;271;51.114;13.780;2022-12-18T07:45:31;34.60;;;16.35;;
572;SDS011;271;51.114;13.780;2022-12-18T07:47:58;36.70;;;14.65;;
572;SDS011;271;51.114;13.780;2022-12-18T07:50:26;33.70;;;14.43;;
572;SDS011;271;51.114;13.780;2022-12-18T07:52:53;38.58;;;15.05;;
572;SDS011;271;51.114;13.780;2022-12-18T07:55:20;34.88;;;16.25;;
572;SDS011;271;51.114;13.780;2022-12-18T07:57:49;32.45;;;15.00;;
572;SDS011;271;51.114;13.780;2022-12-18T08:00:17;37.75;;;16.02;;
572;SDS011;271;51.114;13.780;2022-12-18T08:02:46;39.67;;;16.38;;
572;SDS011;271;51.114;13.780;2022-12-18T08:05:14;41.35;;;17.00;;
572;SDS011;271;51.114;13.780;2022-12-18T08:07:41;39.45;;;16.95;;
572;SDS011;271;51.114;13.780;2022-12-18T08:10:10;42.53;;;18.02;;
572;SDS011;271;51.114;13.780;2022-12-18T08:12:40;42.45;;;17.38;;
572;SDS011;271;51.114;13.780;2022-12-18T08:15:10;42.47;;;15.65;;
572;SDS011;271;51.114;13.780;2022-12-18T08:17:38;42.13;;;16.50;;
572;SDS011;271;51.114;13.780;2022-12-18T08:20:06;42.03;;;16.55;;
572;SDS011;271;51.114;13.780;2022-12-18T08:22:38;43.63;;;18.50;;
572;SDS011;271;51.114;13.780;2022-12-18T08:25:07;44.38;;;18.80;;
572;SDS011;271;51.114;13.780;2022-12-18T08:27:36;43.05;;;16.40;;
572;SDS011;271;51.114;13.780;2022-12-18T08:30:05;38.67;;;16.42;;
572;SDS011;271;51.114;13.780;2022-12-18T08:32:36;43.05;;;17.77;;
572;SDS011;271;51.114;13.780;2022-12-18T08:35:08;41.95;;;18.75;;
572;SDS011;271;51.114;13.780;2022-12-18T08:37:37;40.38;;;16.55;;
572;SDS011;271;51.114;13.780;2022-12-18T08:40:06;40.25;;;17.25;;
572;SDS011;271;51.114;13.780;2022-12-18T08:42:36;43.35;;;18.30;;
572;SDS011;271;51.114;13.780;2022-12-18T08:45:21;40.28;;;17.67;;
572;SDS011;271;51.114;13.780;2022-12-18T08:47:51;43.75;;;17.00;;
572;SDS011;271;51.114;13.780;2022-12-18T08:50:20;35.53;;;15.75;;
572;SDS011;271;51.114;13.780;2022-12-18T08:52:48;39.08;;;14.27;;
572;SDS011;271;51.114;13.780;2022-12-18T08:55:17;40.50;;;14.93;;
572;SDS011;271;51.114;13.780;2022-12-18T08:57:47;36.78;;;14.20;;
572;SDS011;271;51.114;13.780;2022-12-18T09:00:16;34.20;;;13.48;;
572;SDS011;271;51.114;13.780;2022-12-18T09:02:45;33.70;;;12.70;;
572;SDS011;271;51.114;13.780;2022-12-18T09:05:16;36.03;;;14.20;;
572;SDS011;271;51.114;13.780;2022-12-18T09:07:44;33.65;;;12.55;;
572;SDS011;271;51.114;13.780;2022-12-18T09:10:11;32.72;;;13.18;;
572;SDS011;271;51.114;13.780;2022-12-18T09:12:39;31.70;;;12.52;;
572;SDS011;271;51.114;13.780;2022-12-18T09:15:07;29.15;;;12.48;;
572;SDS011;271;51.114;13.780;2022-12-18T09:17:35;36.95;;;13.02;;
572;SDS011;271;51.114;13.780;2022-12-18T09:20:03;33.95;;;12.45;;
572;SDS011;271;51.114;13.780;2022-12-18T09:22:32;35.45;;;13.23;;
572;SDS011;271;51.114;13.780;2022-12-18T09:25:00;33.13;;;12.48;;
572;SDS011;271;51.114;13.780;2022-12-18T09:27:33;30.15;;;11.88;;
572;SDS011;271;51.114;13.780;2022-12-18T09:30:03;32.00;;;12.60;;
572;SDS011;271;51.114;13.780;2022-12-18T09:32:31;35.20;;;13.00;;
572;SDS011;271;51.114;13.780;2022-12-18T09:34:59;33.42;;;12.80;;
572;SDS011;271;51.114;13.780;2022-12-18T09:37:27;30.85;;;11.55;;
572;SDS011;271;51.114;13.780;2022-12-18T09:39:56;33.33;;;12.80;;
572;SDS011;271;51.114;13.780;2022-12-18T09:42:26;34.17;;;13.63;;
572;SDS011;271;51.114;13.780;2022-12-18T09:44:54;36.22;;;14.77;;
572;SDS011;271;51.114;13.780;2022-12-18T09:47:23;33.40;;;12.25;;
572;SDS011;271;51.114;13.780;2022-12-18T09:49:55;34.63;;;13.25;;
572;SDS011;271;51.114;13.780;2022-12-18T09:52:25;39.38;;;16.10;;
572;SDS011;271;51.114;13.780;2022-12-18T09:54:59;34.83;;;13.35;;
572;SDS011;271;51.114;13.780;2022-12-18T09:57:29;33.90;;;14.82;;
572;SDS011;271;51.114;13.780;2022-12-18T10:00:02;30.67;;;12.38;;
572;SDS011;271;51.114;13.780;2022-12-18T10:02:32;33.15;;;12.80;;
572;SDS011;271;51.114;13.780;2022-12-18T10:05:04;29.80;;;12.10;;
572;SDS011;271;51.114;13.780;2022-12-18T10:07:47;32.08;;;13.30;;
572;SDS011;271;51.114;13.780;2022-12-18T10:10:26;33.67;;;12.93;;
572;SDS011;271;51.114;13.780;2022-12-18T10:13:00;31.77;;;12.38;;
572;SDS011;271;51.114;13.780;2022-12-18T10:15:36;33.33;;;13.80;;
572;SDS011;271;51.114;13.780;2022-12-18T10:18:12;32.80;;;13.13;;
572;SDS011;271;51.114;13.780;2022-12-18T10:20:57;32.45;;;12.35;;
572;SDS011;271;51.114;13.780;2022-12-18T10:23:32;32.80;;;13.82;;
572;SDS011;271;51.114;13.780;2022-12-18T10:26:09;34.30;;;13.98;;
572;SDS011;271;51.114;13.780;2022-12-18T10:28:40;34.00;;;14.70;;
572;SDS011;271;51.114;13.780;2022-12-18T10:31:12;33.13;;;13.88;;
572;SDS011;271;51.114;13.780;2022-12-18T10:33:42;36.47;;;14.23;;
572;SDS011;271;51.114;13.780;2022-12-18T10:36:10;32.47;;;12.68;;
572;SDS011;271;51.114;13.780;2022-12-18T10:38:38;33.97;;;14.52;;
572;SDS011;271;51.114;13.780;2022-12-18T10:41:22;31.25;;;12.80;;
572;SDS011;271;51.114;13.780;2022-12-18T10:46:43;31.88;;;13.23;;
572;SDS011;271;51.114;13.780;2022-12-18T10:49:19;36.40;;;14.35;;
572;SDS011;271;51.114;13.780;2022-12-18T10:51:51;33.95;;;13.63;;
572;SDS011;271;51.114;13.780;2022-12-18T10:54:33;34.95;;;14.43;;
572;SDS011;271;51.114;13.780;2022-12-18T10:57:15;32.60;;;13.00;;
572;SDS011;271;51.114;13.780;2022-12-18T10:59:52;36.25;;;14.70;;
572;SDS011;271;51.114;13.780;2022-12-18T11:02:25;35.40;;;13.77;;
572;SDS011;271;51.114;13.780;2022-12-18T11:05:00;34.00;;;12.75;;
572;SDS011;271;51.114;13.780;2022-12-18T11:07:46;33.63;;;14.07;;
572;SDS011;271;51.114;13.780;2022-12-18T11:10:16;34.10;;;13.23;;
572;SDS011;271;51.114;13.780;2022-12-18T11:12:46;33.60;;;13.82;;
572;SDS011;271;51.114;13.780;2022-12-18T11:15:15;30.98;;;12.18;;
572;SDS011;271;51.114;13.780;2022-12-18T11:17:45;33.17;;;13.30;;
572;SDS011;271;51.114;13.780;2022-12-18T11:20:23;34.88;;;13.05;;
572;SDS011;271;51.114;13.780;2022-12-18T11:22:57;34.38;;;13.88;;
572;SDS011;271;51.114;13.780;2022-12-18T11:25:29;38.40;;;15.20;;
572;SDS011;271;51.114;13.780;2022-12-18T11:28:00;34.67;;;14.18;;
572;SDS011;271;51.114;13.780;2022-12-18T11:30:30;34.47;;;13.90;;
572;SDS011;271;51.114;13.780;2022-12-18T11:33:01;32.03;;;13.48;;
572;SDS011;271;51.114;13.780;2022-12-18T11:35:34;34.08;;;13.25;;
572;SDS011;271;51.114;13.780;2022-12-18T11:38:09;35.13;;;14.48;;
572;SDS011;271;51.114;13.780;2022-12-18T11:40:43;38.55;;;14.48;;
572;SDS011;271;51.114;13.780;2022-12-18T11:43:17;35.42;;;13.45;;
572;SDS011;271;51.114;13.780;2022-12-18T11:45:52;37.70;;;14.85;;
572;SDS011;271;51.114;13.780;2022-12-18T11:48:23;38.80;;;16.35;;
572;SDS011;271;51.114;13.780;2022-12-18T11:50:54;33.40;;;13.98;;
572;SDS011;271;51.114;13.780;2022-12-18T11:53:24;33.45;;;13.90;;
572;SDS011;271;51.114;13.780;2022-12-18T11:55:58;33.15;;;13.10;;
572;SDS011;271;51.114;13.780;2022-12-18T11:58:43;33.47;;;12.10;;
572;SDS011;271;51.114;13.780;2022-12-18T12:01:19;37.38;;;16.67;;
572;SDS011;271;51.114;13.780;2022-12-18T12:04:08;33.53;;;14.18;;
572;SDS011;271;51.114;13.780;2022-12-18T12:06:59;35.15;;;13.07;;
572;SDS011;271;51.114;13.780;2022-12-18T12:09:40;37.20;;;13.18;;
572;SDS011;271;51.114;13.780;2022-12-18T12:12:22;35.10;;;13.85;;
572;SDS011;271;51.114;13.780;2022-12-18T12:15:17;30.67;;;12.80;;
572;SDS011;271;51.114;13.780;2022-12-18T12:17:57;34.13;;;12.30;;
572;SDS011;271;51.114;13.780;2022-12-18T12:23:28;33.22;;;12.25;;
572;SDS011;271;51.114;13.780;2022-12-18T12:26:07;30.92;;;11.27;;
572;SDS011;271;51.114;13.780;2022-12-18T12:28:54;31.75;;;12.15;;
572;SDS011;271;51.114;13.780;2022-12-18T12:31:45;35.28;;;13.40;;
572;SDS011;271;51.114;13.780;2022-12-18T12:34:29;35.97;;;12.50;;
572;SDS011;271;51.114;13.780;2022-12-18T12:40:06;40.05;;;12.43;;
572;SDS011;271;51.114;13.780;2022-12-18T12:42:41;33.45;;;13.45;;
572;SDS011;271;51.114;13.780;2022-12-18T12:45:33;33.75;;;14.23;;
572;SDS011;271;51.114;13.780;2022-12-18T12:48:13;35.63;;;13.95;;
572;SDS011;271;51.114;13.780;2022-12-18T12:50:45;31.13;;;12.60;;
572;SDS011;271;51.114;13.780;2022-12-18T12:53:22;36.03;;;13.02;;
572;SDS011;271;51.114;13.780;2022-12-18T12:55:53;32.67;;;12.73;;
572;SDS011;271;51.114;13.780;2022-12-18T12:58:30;31.55;;;12.77;;
572;SDS011;271;51.114;13.780;2022-12-18T13:01:10;33.53;;;12.30;;
572;SDS011;271;51.114;13.780;2022-12-18T13:03:48;34.30;;;13.30;;
572;SDS011;271;51.114;13.780;2022-12-18T13:06:25;36.25;;;13.60;;
572;SDS011;271;51.114;13.780;2022-12-18T13:09:00;35.80;;;13.02;;
572;SDS011;271;51.114;13.780;2022-12-18T13:11:38;30.35;;;12.50;;
572;SDS011;271;51.114;13.780;2022-12-18T13:14:27;30.02;;;11.98;;
572;SDS011;271;51.114;13.780;2022-12-18T13:17:15;29.77;;;10.63;;
572;SDS011;271;51.114;13.780;2022-12-18T13:20:02;31.50;;;12.23;;
572;SDS011;271;51.114;13.780;2022-12-18T13:22:34;34.38;;;12.63;;
572;SDS011;271;51.114;13.780;2022-12-18T13:25:03;33.50;;;13.00;;
572;SDS011;271;51.114;13.780;2022-12-18T13:27:57;28.88;;;11.43;;
572;SDS011;271;51.114;13.780;2022-12-18T13:30:49;34.10;;;13.60;;
572;SDS011;271;51.114;13.780;2022-12-18T13:33:37;33.53;;;12.95;;
572;SDS011;271;51.114;13.780;2022-12-18T13:36:13;36.63;;;13.65;;
572;SDS011;271;51.114;13.780;2022-12-18T13:39:09;34.63;;;13.20;;
572;SDS011;271;51.114;13.780;2022-12-18T13:41:52;37.67;;;13.52;;
572;SDS011;271;51.114;13.780;2022-12-18T13:45:01;34.72;;;13.90;;
572;SDS011;271;51.114;13.780;2022-12-18T13:47:48;35.03;;;13.93;;
572;SDS011;271;51.114;13.780;2022-12-18T13:50:20;34.20;;;13.20;;
572;SDS011;271;51.114;13.780;2022-12-18T13:52:53;33.58;;;12.60;;
572;SDS011;271;51.114;13.780;2022-12-18T13:55:20;35.03;;;13.55;;
572;SDS011;271;51.114;13.780;2022-12-18T13:57:50;32.25;;;11.85;;
572;SDS011;271;51.114;13.780;2022-12-18T14:00:30;33.28;;;12.07;;
572;SDS011;271;51.114;13.780;2022-12-18T14:02:58;32.83;;;12.27;;
572;SDS011;271;51.114;13.780;2022-12-18T14:05:27;33.70;;;12.30;;
572;SDS011;271;51.114;13.780;2022-12-18T14:08:00;33.42;;;12.85;;
572;SDS011;271;51.114;13.780;2022-12-18T14:10:32;28.85;;;11.27;;
572;SDS011;271;51.114;13.780;2022-12-18T14:13:02;32.35;;;12.25;;
572;SDS011;271;51.114;13.780;2022-12-18T14:15:34;32.47;;;10.98;;
572;SDS011;271;51.114;13.780;2022-12-18T14:18:08;28.70;;;11.23;;
572;SDS011;271;51.114;13.780;2022-12-18T14:20:45;32.13;;;11.18;;
572;SDS011;271;51.114;13.780;2022-12-18T14:23:29;32.53;;;11.65;;
572;SDS011;271;51.114;13.780;2022-12-18T14:25:59;31.63;;;11.20;;
572;SDS011;271;51.114;13.780;2022-12-18T14:28:27;35.05;;;11.50;;
572;SDS011;271;51.114;13.780;2022-12-18T14:30:54;33.28;;;11.05;;
572;SDS011;271;51.114;13.780;2022-12-18T14:33:22;32.55;;;11.57;;
572;SDS011;271;51.114;13.780;2022-12-18T14:35:53;32.92;;;12.60;;
572;SDS011;271;51.114;13.780;2022-12-18T14:38:24;35.15;;;12.63;;
572;SDS011;271;51.114;13.780;2022-12-18T14:41:01;31.48;;;11.98;;
572;SDS011;271;51.114;13.780;2022-12-18T14:43:31;35.22;;;15.77;;
572;SDS011;271;51.114;13.780;2022-12-18T14:46:00;34.38;;;11.75;;
572;SDS011;271;51.114;13.780;2022-12-18T14:48:35;32.50;;;10.48;;
572;SDS011;271;51.114;13.780;2022-12-18T14:51:05;34.42;;;12.20;;
572;SDS011;271;51.114;13.780;2022-12-18T14:53:43;33.45;;;12.05;;
572;SDS011;271;51.114;13.780;2022-12-18T14:56:14;38.55;;;16.73;;
572;SDS011;271;51.114;13.780;2022-12-18T14:58:44;34.05;;;12.38;;
572;SDS011;271;51.114;13.780;2022-12-18T15:01:19;33.22;;;12.27;;
572;SDS011;271;51.114;13.780;2022-12-18T15:03:50;38.03;;;15.38;;
572;SDS011;271;51.114;13.780;2022-12-18T15:06:23;34.58;;;13.95;;
572;SDS011;271;51.114;13.780;2022-12-18T15:08:57;32.58;;;12.05;;
572;SDS011;271;51.114;13.780;2022-12-18T15:11:27;32.13;;;12.15;;
572;SDS011;271;51.114;13.780;2022-12-18T15:13:58;31.35;;;12.02;;
572;SDS011;271;51.114;13.780;2022-12-18T15:16:26;31.42;;;12.63;;
572;SDS011;271;51.114;13.780;2022-12-18T15:18:53;30.42;;;11.65;;
572;SDS011;271;51.114;13.780;2022-12-18T15:21:21;33.13;;;13.43;;
572;SDS011;271;51.114;13.780;2022-12-18T15:23:49;31.15;;;12.15;;
572;SDS011;271;51.114;13.780;2022-12-18T15:26:20;40.30;;;16.65;;
572;SDS011;271;51.114;13.780;2022-12-18T15:28:48;39.80;;;18.30;;
572;SDS011;271;51.114;13.780;2022-12-18T15:31:26;34.60;;;12.93;;
572;SDS011;271;51.114;13.780;2022-12-18T15:34:00;39.78;;;26.02;;
572;SDS011;271;51.114;13.780;2022-12-18T15:36:36;33.65;;;16.17;;